Latest Weather Observations for Victoria River Downs

IDD60801

Issued at 9:05 am CST Wednesday 3 September 2014 (issued every 30 minutes, with the page automatically refreshed every 10 minutes)

About weather observations | Map of weather stations | Latest weather observations for NT | Other Formats
Station Details ID: 014825 Name: VICTORIA RIVER DOWNS Lat: -16.40 Lon: 131.01 Height: 88.5 m
Data from the previous 72 hours. | See also: Recent months at Victoria River Downs
Date/Time
CST
Temp
°C
App
Temp
°C
Dew
Point
Rel
Hum
%
Delta-T
°C
Wind Press
QNH
hPa
Press
MSL
hPa
Rain
since 9 am
mm
Dir
 
Spd
km/h
Gust
km/h
Spd
kts
Gust
kts
03/09:00am 20.5 18.0 4.0 33 7.9 SE 6 9 3 5 1019.7 1019.2 0.0
03/08:30am 19.2 16.1 0.3 28 8.4 W 6 7 3 4 1019.6 - 0.0
03/08:26am 18.3 15.2 0.0 29 8.0 WNW 6 9 3 5 1019.5 - 0.0
03/08:00am 15.3 12.0 -0.9 33 6.8 WSW 6 7 3 4 1019.2 - 0.0
03/07:30am 13.5 10.3 -0.5 38 5.8 WNW 6 9 3 5 1018.8 - 0.0
03/07:00am 12.3 9.5 -0.6 41 5.3 WNW 4 9 2 5 1018.4 - 0.0
03/06:30am 12.9 10.9 -0.4 40 5.5 CALM 0 0 0 0 1017.9 - 0.0
03/06:00am 14.9 11.4 -1.2 33 6.6 SSE 7 9 4 5 1017.4 1016.9 0.0
03/05:30am 13.6 10.0 0.6 41 5.5 SSE 9 15 5 8 1017.1 - 0.0
03/05:00am 13.6 10.1 -3.2 31 6.5 WSW 6 11 3 6 1016.8 - 0.0
03/04:30am 13.5 9.9 -3.3 31 6.5 SW 6 13 3 7 1016.6 - 0.0
03/04:00am 14.4 10.8 -3.4 29 7.0 W 6 11 3 6 1016.5 - 0.0
03/03:30am 15.2 13.0 1.0 38 6.2 SW 2 6 1 3 1016.7 - 0.0
03/03:00am 16.1 13.0 -2.4 28 7.5 WSW 4 11 2 6 1016.6 1016.0 0.0
03/02:30am 14.5 10.3 -3.8 28 7.1 WNW 9 11 5 6 1016.1 - 0.0
03/02:00am 15.0 11.1 -4.3 26 7.5 NW 7 9 4 5 1016.1 - 0.0
03/01:30am 15.4 12.9 -4.0 26 7.6 CALM 0 0 0 0 1016.2 - 0.0
03/01:00am 17.7 13.9 -3.7 23 8.6 W 7 9 4 5 1016.3 - 0.0
03/12:30am 17.0 12.8 -3.7 24 8.3 W 9 11 5 6 1016.3 - 0.0
03/12:00am 18.3 15.1 -3.8 22 8.9 E 4 7 2 4 1016.3 1015.8 0.0
 
Date/Time
CST
Temp
°C
App
Temp
°C
Dew
Point
Rel
Hum
%
Delta-T
°C
Wind Press
QNH
hPa
Press
MSL
hPa
Rain
since 9 am
mm
Dir
 
Spd
km/h
Gust
km/h
Spd
kts
Gust
kts
02/11:30pm 20.4 17.0 -0.8 24 9.3 SE 7 9 4 5 1015.9 - 0.0
02/11:00pm 21.9 18.1 -5.9 15 11.2 ESE 6 9 3 5 1015.8 - 0.0
02/10:30pm 24.5 20.6 -4.7 14 12.3 SE 7 9 4 5 1015.6 - 0.0
02/10:00pm 24.9 20.9 -2.6 16 12.1 ESE 9 13 5 7 1015.5 - 0.0
02/09:30pm 26.4 21.4 -4.2 13 13.2 SE 13 17 7 9 1015.2 - 0.0
02/09:00pm 26.6 21.7 -3.1 14 13.1 SE 13 17 7 9 1014.9 1014.3 0.0
02/08:30pm 27.4 22.6 -2.4 14 13.4 SE 13 19 7 10 1014.7 - 0.0
02/08:00pm 28.2 24.3 -1.8 14 13.7 SE 9 17 5 9 1014.2 - 0.0
02/07:30pm 28.9 24.7 -1.2 14 14.0 SE 11 13 6 7 1013.8 - 0.0
02/07:00pm 30.1 26.1 -2.4 12 15.0 SE 9 11 5 6 1013.4 - 0.0
02/06:30pm 32.3 27.6 -1.9 11 16.1 SE 13 17 7 9 1013.1 - 0.0
02/06:00pm 34.0 28.7 -3.3 9 17.4 SE 15 28 8 15 1012.8 1012.2 0.0
02/05:30pm 34.9 29.3 -2.6 9 17.8 ESE 17 28 9 15 1012.5 - 0.0
02/05:00pm 35.3 29.2 -3.9 8 18.3 ESE 19 28 10 15 1012.4 - 0.0
02/04:30pm 35.7 30.4 -3.6 8 18.5 SSE 15 32 8 17 1012.1 - 0.0
02/04:00pm 35.7 29.4 -5.4 7 18.8 ESE 19 30 10 16 1012.2 - 0.0
02/03:30pm 35.8 29.7 -3.5 8 18.5 E 19 28 10 15 1012.4 - 0.0
02/03:00pm 35.7 30.0 -3.6 8 18.5 E 17 30 9 16 1012.7 1012.1 0.0
02/02:30pm 35.8 30.3 -5.3 7 18.8 ESE 15 24 8 13 1013.0 - 0.0
02/02:00pm 34.6 28.6 -2.9 9 17.7 E 19 30 10 16 1013.6 - 0.0
02/01:30pm 35.1 28.6 -2.5 9 17.9 E 22 39 12 21 1014.0 - 0.0
02/01:00pm 35.1 28.2 -2.5 9 17.9 ENE 24 39 13 21 1014.3 - 0.0
02/12:30pm 34.4 28.4 -1.6 10 17.3 ENE 20 33 11 18 1015.0 - 0.0
02/12:00pm 32.1 28.1 0.2 13 15.5 NE 11 17 6 9 1015.7 1015.3 0.0
02/11:30am 31.0 27.1 1.4 15 14.6 ENE 11 19 6 10 1016.4 - 0.0
02/11:00am 29.7 25.7 2.9 18 13.5 ENE 13 17 7 9 1017.1 - 0.0
02/10:30am 28.0 25.3 3.7 21 12.3 E 7 13 4 7 1017.5 - 0.0
02/10:00am 26.2 23.0 2.8 22 11.5 SE 9 11 5 6 1017.6 - 0.0
02/09:30am 24.4 21.5 1.3 22 10.9 N 6 7 3 4 1017.5 - 0.0
02/09:15am 23.6 21.0 0.7 22 10.6 W 4 7 2 4 1017.4 - 0.0
02/09:00am 22.3 20.5 1.3 25 9.7 CALM 0 7 0 4 1017.4 1016.9 0.0
02/08:30am 18.8 16.6 1.3 31 7.9 SW 2 7 1 4 1017.4 - 0.0
02/08:15am 17.0 15.0 0.2 32 7.3 CALM 0 0 0 0 1017.2 - 0.0
02/08:00am 15.4 13.3 -0.8 33 6.8 CALM 0 4 0 2 1017.1 - 0.0
02/07:30am 12.1 8.6 -1.1 40 5.3 W 7 7 4 4 1016.9 - 0.0
02/07:00am 10.9 7.5 -0.5 45 4.6 W 7 9 4 5 1016.6 - 0.0
02/06:30am 11.0 7.6 -0.5 45 4.6 W 7 11 4 6 1016.2 - 0.0
02/06:00am 11.4 9.3 -1.0 42 5.0 CALM 0 2 0 1 1016.0 1015.5 0.0
02/05:30am 12.2 9.9 0.6 45 4.9 N 2 9 1 5 1015.8 - 0.0
02/05:00am 11.0 7.8 -0.5 45 4.6 W 6 7 3 4 1015.4 - 0.0
02/04:30am 11.6 8.3 -0.2 44 4.8 WSW 7 7 4 4 1015.1 - 0.0
02/04:00am 12.6 9.6 1.9 48 4.6 W 7 9 4 5 1015.1 - 0.0
02/03:30am 12.6 9.3 -1.0 39 5.5 W 6 9 3 5 1015.3 - 0.0
02/03:00am 12.6 9.1 -1.3 38 5.6 W 7 9 4 5 1015.3 1014.7 0.0
02/02:30am 12.7 9.4 -1.2 38 5.6 NW 6 7 3 4 1015.4 - 0.0
02/02:00am 13.4 11.2 -1.3 36 6.0 CALM 0 0 0 0 1015.3 - 0.0
02/01:30am 13.8 11.7 -1.0 36 6.1 CALM 0 0 0 0 1015.3 - 0.0
02/01:00am 14.0 11.8 -1.6 34 6.3 CALM 0 0 0 0 1015.4 - 0.0
02/12:30am 14.3 11.4 -1.3 34 6.4 S 4 7 2 4 1015.3 - 0.0
02/12:00am 14.9 11.6 -1.6 32 6.7 S 6 9 3 5 1015.2 1014.6 0.0
 
Date/Time
CST
Temp
°C
App
Temp
°C
Dew
Point
Rel
Hum
%
Delta-T
°C
Wind Press
QNH
hPa
Press
MSL
hPa
Rain
since 9 am
mm
Dir
 
Spd
km/h
Gust
km/h
Spd
kts
Gust
kts
01/11:30pm 15.5 12.2 -1.1 32 6.9 S 6 7 3 4 1015.1 - 0.0
01/11:00pm 15.6 12.3 -1.0 32 6.9 S 6 7 3 4 1015.1 - 0.0
01/10:30pm 16.5 13.2 -1.1 30 7.4 S 6 11 3 6 1015.0 - 0.0
01/10:00pm 17.1 13.2 -1.5 28 7.8 SSE 9 11 5 6 1014.9 - 0.0
01/09:30pm 18.1 14.6 -1.2 27 8.2 S 7 9 4 5 1014.8 - 0.0
01/08:30pm 20.8 17.0 -1.1 23 9.6 SSE 9 11 5 6 1014.1 - 0.0
01/08:00pm 22.2 20.1 -1.1 21 10.3 CALM 0 0 0 0 1013.6 - 0.0
01/07:30pm 24.4 21.6 -0.7 19 11.4 SSE 4 6 2 3 1013.1 - 0.0
01/07:18pm 25.8 22.8 0.5 19 11.9 SSE 6 7 3 4 1012.9 - 0.0
01/07:00pm 27.3 23.8 -1.6 15 13.2 SSE 7 9 4 5 1012.7 - 0.0
01/06:30pm 30.8 27.2 -1.9 12 15.3 SE 7 11 4 6 1012.5 - 0.0
01/06:00pm 32.5 28.6 -1.7 11 16.2 SSE 9 15 5 8 1012.3 1011.7 0.0
01/05:30pm 33.2 29.2 -2.5 10 16.8 SSE 9 19 5 10 1012.3 - 0.0
01/05:00pm 33.6 29.2 -2.2 10 17.0 SE 11 19 6 10 1012.2 - 0.0
01/04:30pm 34.2 30.4 -0.4 11 16.9 S 9 15 5 8 1012.2 - 0.0
01/04:00pm 34.5 30.0 -0.2 11 17.1 E 13 24 7 13 1012.2 - 0.0
01/03:30pm 34.0 29.3 -1.9 10 17.1 E 13 24 7 13 1012.5 - 0.0
01/03:00pm 33.9 30.5 -0.7 11 16.8 N 7 15 4 8 1012.8 - 0.0
01/02:30pm 33.6 28.5 -2.2 10 17.0 NE 15 24 8 13 1013.2 - 0.0
01/02:00pm 33.8 28.9 -0.7 11 16.8 ENE 15 22 8 12 1013.6 - 0.0
01/01:30pm 33.0 28.7 -1.4 11 16.4 E 11 22 6 12 1014.1 - 0.0
01/01:00pm 32.4 27.7 -1.8 11 16.2 ENE 13 22 7 12 1014.9 - 0.0
01/12:30pm 31.5 27.8 -0.2 13 15.3 E 9 19 5 10 1015.6 - 0.0
01/12:00pm 30.6 26.0 -0.9 13 14.9 ENE 13 20 7 11 1016.3 1015.8 0.0
01/11:30am 29.5 24.6 -0.8 14 14.3 NE 15 19 8 10 1016.7 - 0.0
01/11:00am 28.8 24.7 -0.4 15 13.8 E 11 19 6 10 1017.2 - 0.0
01/10:30am 27.3 24.7 -1.6 15 13.2 E 2 9 1 5 1017.5 - 0.0
01/10:00am 26.0 22.3 -2.6 15 12.7 NE 7 11 4 6 1017.6 - 0.0
01/09:30am 24.8 21.2 -3.6 15 12.2 ENE 6 9 3 5 1017.6 - 0.0
01/09:09am 22.6 19.8 -2.9 18 10.9 SE 2 6 1 3 1017.6 - 0.0
01/09:00am 21.5 18.4 -2.4 20 10.2 SSE 4 7 2 4 1017.6 1017.1 0.0
01/08:30am 17.9 15.2 0.1 30 7.8 SW 4 7 2 4 1017.5 - 0.0
01/08:19am 16.1 14.0 -0.6 32 7.1 CALM 0 0 0 0 1017.3 - 0.0
01/08:00am 14.3 11.2 0.2 38 6.0 SW 6 9 3 5 1017.1 - 0.0
01/07:30am 11.3 9.3 2.1 53 3.9 SE 2 6 1 3 1017.0 - 0.0
01/07:00am 10.3 7.2 -3.0 39 5.0 NE 4 9 2 5 1016.5 - 0.0
01/06:30am 10.1 6.7 -2.2 42 4.7 W 6 7 3 4 1015.6 - 0.0
01/06:00am 9.4 5.6 -3.8 39 4.8 NW 7 7 4 4 1015.1 1014.5 0.0
01/05:30am 10.1 6.0 -3.2 39 5.0 NW 9 9 5 5 1014.6 - 0.0
01/05:00am 10.8 7.5 0.2 48 4.3 SW 7 9 4 5 1014.2 - 0.0
01/04:30am 10.9 7.1 -3.9 35 5.5 W 7 9 4 5 1014.2 - 0.0
01/04:00am 10.6 6.7 -4.2 35 5.4 W 7 9 4 5 1013.9 - 0.0
01/03:30am 11.0 7.1 -4.6 33 5.7 WNW 7 7 4 4 1013.7 - 0.0
01/03:00am 11.3 7.4 -4.4 33 5.8 W 7 9 4 5 1013.6 1013.0 0.0
01/02:30am 11.4 7.5 -4.3 33 5.8 WNW 7 9 4 5 1013.7 - 0.0
01/02:00am 11.7 7.8 -4.4 32 6.0 NW 7 9 4 5 1013.8 - 0.0
01/01:30am 11.9 8.2 -4.7 31 6.1 WNW 6 7 3 4 1013.9 - 0.0
01/01:00am 12.5 9.2 -4.1 31 6.3 W 4 7 2 4 1014.1 - 0.0
01/12:30am 12.6 10.1 -4.1 31 6.3 CALM 0 0 0 0 1014.1 - 0.0
01/12:00am 12.8 9.1 -3.0 33 6.1 S 7 9 4 5 1014.2 1013.7 0.0
 
Date/Time
CST
Temp
°C
App
Temp
°C
Dew
Point
Rel
Hum
%
Delta-T
°C
Wind Press
QNH
hPa
Press
MSL
hPa
Rain
since 9 am
mm
Dir
 
Spd
km/h
Gust
km/h
Spd
kts
Gust
kts
31/11:30pm 13.4 9.5 -4.2 29 6.7 S 7 9 4 5 1014.2 - 0.0
31/11:00pm 14.4 10.3 -3.4 29 7.0 S 9 11 5 6 1014.0 - 0.0
31/10:30pm 14.7 11.0 -3.1 29 7.0 S 7 9 4 5 1014.0 - 0.0
31/10:00pm 15.6 13.2 -3.3 27 7.5 CALM 0 0 0 0 1014.1 - 0.0
31/09:30pm 16.3 13.5 -3.7 25 7.9 SSE 2 6 1 3 1014.0 - 0.0
31/09:00pm 17.6 14.1 -3.2 24 8.4 SSE 6 7 3 4 1013.8 1013.3 0.0
31/08:30pm 18.6 15.0 -3.5 22 9.0 SSE 6 7 3 4 1013.5 - 0.0
31/08:00pm 20.8 17.8 -5.1 17 10.4 S 2 7 1 4 1013.2 - 0.0
31/07:30pm 23.0 19.2 -5.9 14 11.7 SSE 6 9 3 5 1012.8 - 0.0
31/07:20pm 24.7 20.9 -3.6 15 12.2 S 7 9 4 5 1012.7 - 0.0
31/07:00pm 26.7 23.0 -5.0 12 13.5 S 6 7 3 4 1012.5 - 0.0
31/06:30pm 29.5 25.7 -4.0 11 14.9 SSE 7 11 4 6 1012.2 - 0.0
31/06:00pm 31.3 27.0 -5.3 9 16.2 SE 9 15 5 8 1011.9 1011.5 0.0
31/05:30pm 31.8 27.0 -6.5 8 16.6 ESE 11 15 6 8 1011.8 - 0.0
31/05:00pm 32.0 26.8 -6.3 8 16.7 SSE 13 20 7 11 1011.9 - 0.0
31/04:30pm 32.7 27.9 -5.8 8 17.1 ESE 11 17 6 9 1011.8 - 0.0
31/04:00pm 32.5 27.3 -6.0 8 17.0 SE 13 20 7 11 1011.9 - 0.0
31/03:30pm 32.7 27.7 -4.3 9 16.8 SE 13 20 7 11 1012.2 - 0.0
31/03:00pm 32.3 26.4 -6.1 8 16.9 SE 17 26 9 14 1012.5 1012.1 0.0
31/02:30pm 31.8 26.7 -4.9 9 16.4 SSE 13 24 7 13 1013.0 - 0.0
31/02:00pm 31.7 26.6 -5.0 9 16.3 SSE 13 20 7 11 1013.4 - 0.0
31/01:30pm 31.3 26.2 -5.3 9 16.2 ESE 13 26 7 14 1014.0 - 0.0
31/01:00pm 30.9 25.2 -7.1 8 16.2 E 15 26 8 14 1014.7 - 0.0
31/12:30pm 30.7 25.5 -5.8 9 15.9 ESE 13 20 7 11 1015.2 - 0.0
31/12:00pm 30.1 23.9 -4.8 10 15.4 E 19 26 10 14 1015.8 - 0.0
31/11:30am 29.7 23.9 -5.1 10 15.2 E 17 28 9 15 1016.4 - 0.0
31/11:00am 28.3 23.6 -4.9 11 14.4 ESE 11 15 6 8 1016.9 - 0.0
31/10:30am 26.7 - -5.0 12 13.5 - - - - - 1017.2 - 0.0
31/10:00am 25.1 20.9 -4.2 14 12.5 ESE 9 17 5 9 1017.3 - 0.0
31/09:30am 23.4 20.1 -4.7 15 11.7 SSW 4 7 2 4 1017.4 - 0.0
31/09:18am 22.0 19.0 -2.0 20 10.4 S 4 7 2 4 1017.4 - 0.0

Other Formats:

Comma delimited format used in spreadsheet applications
http://www.bom.gov.au/fwo/IDD60801/IDD60801.94232.axf

JavaScript Object Notation format (JSON) in row-major order
http://www.bom.gov.au/fwo/IDD60801/IDD60801.94232.json